| time (UTC) | temp F | wind direction | speed knots | gust knots | rain 1hr in | rain 24hr in | rain mn in | humidity % | barometer mb |
| 20260505224003 | 73 | 15 | 2.6 | 7.0 | 0.00 | 0.00 | 0.00 | 28 | 1011.9 |
| 20260505223719 | 73 | 356 | 3.5 | 7.0 | 0.00 | 0.00 | 0.00 | 27 | 1011.9 |
| 20260505223003 | 75 | 8 | 2.6 | 7.0 | 0.00 | 0.00 | 0.00 | 25 | 1011.9 |
| 20260505222503 | 76 | 40 | 2.6 | 7.0 | 0.00 | 0.00 | 0.00 | 25 | 1011.9 |
| 20260505222003 | 77 | 28 | 4.3 | 8.7 | 0.00 | 0.00 | 0.00 | 26 | 1011.9 |
| 20260505221503 | 76 | 24 | 3.5 | 8.7 | 0.00 | 0.00 | 0.00 | 28 | 1012.0 |
| 20260505221003 | 75 | 50 | 2.6 | 8.7 | 0.00 | 0.00 | 0.00 | 28 | 1012.0 |
| 20260505220716 | 76 | 50 | 2.6 | 8.7 | 0.00 | 0.00 | 0.00 | 28 | 1012.0 |
| 20260505220003 | 74 | 17 | 4.3 | 7.8 | 0.00 | 0.00 | 0.00 | 28 | 1012.1 |
| 20260505215503 | 76 | 1 | 4.3 | 10.4 | 0.00 | 0.00 | 0.00 | 27 | 1012.1 |
| 20260505215003 | 76 | 5 | 3.5 | 10.4 | 0.00 | 0.00 | 0.00 | 26 | 1012.1 |
| 20260505214503 | 75 | 20 | 4.3 | 10.4 | 0.00 | 0.00 | 0.00 | 27 | 1012.1 |
| 20260505214003 | 77 | 25 | 4.3 | 10.4 | 0.00 | 0.00 | 0.00 | 26 | 1012.2 |
| 20260505213503 | 74 | 23 | 4.3 | 13.9 | 0.00 | 0.00 | 0.00 | 30 | 1012.2 |
| 20260505213003 | 74 | 27 | 5.2 | 13.9 | 0.00 | 0.00 | 0.00 | 29 | 1012.2 |
| 20260505212716 | 75 | 25 | 4.3 | 13.9 | 0.00 | 0.00 | 0.00 | 27 | 1012.1 |
| 20260505212217 | 74 | 25 | 2.6 | 10.4 | 0.00 | 0.00 | 0.00 | 26 | 1012.1 |
| 20260505211503 | 76 | 23 | 3.5 | 8.7 | 0.00 | 0.00 | 0.00 | 26 | 1012.2 |
| 20260505211003 | 74 | 9 | 3.5 | 8.7 | 0.00 | 0.00 | 0.00 | 28 | 1012.2 |
| 20260505210503 | 74 | 352 | 4.3 | 10.4 | 0.00 | 0.00 | 0.00 | 30 | 1012.3 |
| 20260505210217 | 75 | 347 | 5.2 | 10.4 | 0.00 | 0.00 | 0.00 | 30 | 1012.4 |
| 20260505205503 | 73 | 342 | 4.3 | 10.4 | 0.00 | 0.00 | 0.00 | 28 | 1012.4 |
| 20260505205003 | 73 | 351 | 3.5 | 10.4 | 0.00 | 0.00 | 0.00 | 29 | 1012.4 |
| 20260505204503 | 74 | 360 | 4.3 | 8.7 | 0.00 | 0.00 | 0.00 | 27 | 1012.5 |
| 20260505204217 | 72 | 358 | 3.5 | 7.8 | 0.00 | 0.00 | 0.00 | 29 | 1012.5 |
| 20260505203718 | 73 | 12 | 3.5 | 11.3 | 0.00 | 0.00 | 0.00 | 29 | 1012.5 |
| 20260505203003 | 74 | 35 | 4.3 | 11.3 | 0.00 | 0.00 | 0.00 | 29 | 1012.6 |
| 20260505202503 | 73 | 46 | 2.6 | 9.6 | 0.00 | 0.00 | 0.00 | 30 | 1012.6 |
| 20260505202003 | 73 | 31 | 2.6 | 9.6 | 0.00 | 0.00 | 0.00 | 31 | 1012.6 |
| 20260505201503 | 71 | 7 | 3.5 | 9.6 | 0.00 | 0.00 | 0.00 | 32 | 1012.7 |
| 20260505201003 | 72 | 358 | 4.3 | 12.2 | 0.00 | 0.00 | 0.00 | 30 | 1012.7 |
| 20260505200503 | 73 | 353 | 3.5 | 12.2 | 0.00 | 0.00 | 0.00 | 32 | 1012.7 |
| 20260505200003 | 72 | 23 | 3.5 | 9.6 | 0.00 | 0.00 | 0.00 | 32 | 1012.8 |
| 20260505195718 | 72 | 29 | 4.3 | 9.6 | 0.00 | 0.00 | 0.00 | 32 | 1012.6 |
| 20260505195003 | 73 | 19 | 4.3 | 9.6 | 0.00 | 0.00 | 0.00 | 31 | 1012.6 |
| 20260505194503 | 72 | 12 | 4.3 | 9.6 | 0.00 | 0.00 | 0.00 | 31 | 1012.7 |
| 20260505194003 | 70 | 3 | 2.6 | 8.7 | 0.00 | 0.00 | 0.00 | 34 | 1012.6 |
| 20260505193503 | 70 | 359 | 2.6 | 8.7 | 0.00 | 0.00 | 0.00 | 34 | 1012.7 |
| 20260505193003 | 71 | 3 | 2.6 | 7.0 | 0.00 | 0.00 | 0.00 | 32 | 1012.6 |
| 20260505192503 | 70 | 29 | 2.6 | 7.0 | 0.00 | 0.00 | 0.00 | 35 | 1012.6 |
| 20260505192003 | 70 | 47 | 2.6 | 7.0 | 0.00 | 0.00 | 0.00 | 35 | 1012.6 |
| 20260505191717 | 70 | 46 | 2.6 | 7.0 | 0.00 | 0.00 | 0.00 | 34 | 1012.7 |
| 20260505191004 | 70 | 63 | 1.7 | 7.0 | 0.00 | 0.00 | 0.00 | 36 | 1012.6 |
| 20260505190503 | 69 | 177 | 2.6 | 6.1 | 0.00 | 0.00 | 0.00 | 36 | 1012.6 |
| 20260505190004 | 71 | 193 | 3.5 | 7.0 | 0.00 | 0.00 | 0.00 | 35 | 1012.5 |
| 20260505185503 | 71 | 234 | 2.6 | 7.0 | 0.00 | 0.00 | 0.00 | 37 | 1012.4 |
| 20260505185003 | 68 | 257 | 2.6 | 6.1 | 0.00 | 0.00 | 0.00 | 39 | 1012.5 |
| 20260505184503 | 66 | 248 | 3.5 | 9.6 | 0.00 | 0.00 | 0.00 | 41 | 1012.5 |
| 20260505184003 | 69 | 244 | 4.3 | 9.6 | 0.00 | 0.00 | 0.00 | 38 | 1012.6 |
| 20260505183717 | 70 | 233 | 4.3 | 7.8 | 0.00 | 0.00 | 0.00 | 38 | 1012.6 |
| 20260505183003 | 69 | 230 | 4.3 | 8.7 | 0.00 | 0.00 | 0.00 | 39 | 1012.7 |
| 20260505182719 | 68 | 229 | 5.2 | 9.6 | 0.00 | 0.00 | 0.00 | 40 | 1012.7 |
| 20260505182003 | 67 | 223 | 4.3 | 9.6 | 0.00 | 0.00 | 0.00 | 45 | 1012.7 |
| 20260505181717 | 67 | 224 | 4.3 | 8.7 | 0.00 | 0.00 | 0.00 | 42 | 1012.8 |
| 20260505181003 | 65 | 224 | 3.5 | 7.8 | 0.00 | 0.00 | 0.00 | 49 | 1012.8 |
| 20260505180719 | 65 | 218 | 3.5 | 7.8 | 0.00 | 0.00 | 0.00 | 47 | 1012.8 |
| 20260505180216 | 64 | 217 | 3.5 | 7.8 | 0.00 | 0.00 | 0.00 | 51 | 1012.8 |
| 20260505175503 | 65 | 226 | 3.5 | 6.1 | 0.00 | 0.00 | 0.00 | 49 | 1012.8 |
| 20260505175003 | 64 | 224 | 3.5 | 7.0 | 0.00 | 0.00 | 0.00 | 51 | 1012.8 |
| 20260505174503 | 63 | 228 | 3.5 | 7.0 | 0.00 | 0.00 | 0.00 | 52 | 1012.8 |
| 20260505174003 | 63 | 239 | 2.6 | 4.3 | 0.00 | 0.00 | 0.00 | 51 | 1012.8 |
| 20260505173503 | 63 | 252 | 1.7 | 4.3 | 0.00 | 0.00 | 0.00 | 53 | 1012.8 |
| 20260505173003 | 61 | 239 | 2.6 | 5.2 | 0.00 | 0.00 | 0.00 | 54 | 1012.8 |
| 20260505172719 | 61 | 230 | 2.6 | 5.2 | 0.00 | 0.00 | 0.00 | 54 | 1012.8 |
| 20260505172003 | 61 | 245 | 2.6 | 6.1 | 0.00 | 0.00 | 0.00 | 54 | 1012.9 |
| 20260505171503 | 60 | 245 | 2.6 | 6.1 | 0.00 | 0.00 | 0.00 | 54 | 1012.9 |
| 20260505171003 | 59 | 214 | 2.6 | 4.3 | 0.00 | 0.00 | 0.00 | 57 | 1012.9 |
| 20260505170503 | 59 | 190 | 2.6 | 5.2 | 0.00 | 0.00 | 0.00 | 55 | 1012.9 |
| 20260505170003 | 58 | 183 | 2.6 | 5.2 | 0.00 | 0.00 | 0.00 | 59 | 1012.8 |
| 20260505165503 | 58 | 207 | 2.6 | 4.3 | 0.00 | 0.00 | 0.00 | 58 | 1012.9 |
| 20260505165003 | 57 | 220 | 1.7 | 4.3 | 0.00 | 0.00 | 0.00 | 61 | 1012.9 |
| 20260505164503 | 56 | 205 | 1.7 | 3.5 | 0.00 | 0.00 | 0.00 | 63 | 1012.9 |
| 20260505164003 | 55 | 209 | 2.6 | 4.3 | 0.00 | 0.00 | 0.00 | 65 | 1012.8 |
| 20260505163503 | 56 | 208 | 2.6 | 4.3 | 0.00 | 0.00 | 0.00 | 64 | 1012.9 |
| 20260505163003 | 55 | 186 | 2.6 | 4.3 | 0.00 | 0.00 | 0.00 | 67 | 1012.8 |
| 20260505162503 | 55 | 177 | 2.6 | 4.3 | 0.00 | 0.00 | 0.00 | 67 | 1012.9 |
| 20260505162219 | 54 | 168 | 2.6 | 4.3 | 0.00 | 0.00 | 0.00 | 68 | 1012.9 |
| 20260505161503 | 53 | 183 | 1.7 | 5.2 | 0.00 | 0.00 | 0.00 | 70 | 1012.8 |
| 20260505161003 | 54 | 190 | 1.7 | 4.3 | 0.00 | 0.00 | 0.00 | 68 | 1012.9 |
| 20260505160503 | 53 | 181 | 2.6 | 4.3 | 0.00 | 0.00 | 0.00 | 68 | 1012.8 |
| 20260505153003 | 51 | 162 | 1.7 | 4.3 | 0.00 | 0.00 | 0.00 | 74 | 1012.7 |
| 20260505152718 | 50 | 159 | 1.7 | 4.3 | 0.00 | 0.00 | 0.00 | 74 | 1012.7 |
| 20260505152003 | 50 | 161 | 1.7 | 5.2 | 0.00 | 0.00 | 0.00 | 75 | 1012.6 |
| 20260505151503 | 50 | 157 | 1.7 | 5.2 | 0.00 | 0.00 | 0.00 | 75 | 1012.6 |
| 20260505151003 | 50 | 144 | 1.7 | 3.5 | 0.00 | 0.00 | 0.00 | 75 | 1012.6 |
| 20260505150503 | 49 | 112 | 0.9 | 2.6 | 0.00 | 0.00 | 0.00 | 75 | 1012.5 |
| 20260505140503 | 47 | 62 | 1.7 | 2.6 | 0.00 | 0.00 | 0.00 | 78 | 1012.1 |
| 20260505130218 | 45 | 45 | 0.9 | 1.7 | 0.00 | 0.00 | 0.00 | 78 | 1011.5 |
| 20260505125003 | 46 | 9 | 0.9 | 2.6 | 0.00 | 0.00 | 0.00 | 56 | 1011.4 |
| 20260505124717 | 47 | 9 | 1.7 | 2.6 | 0.00 | 0.00 | 0.00 | 56 | 1011.4 |
| 20260505124003 | 47 | 5 | 1.7 | 3.5 | 0.00 | 0.00 | 0.00 | 55 | 1011.3 |
| 20260505123503 | 47 | 353 | 1.7 | 3.5 | 0.00 | 0.00 | 0.00 | 56 | 1011.2 |
| 20260505123003 | 47 | 346 | 1.7 | 3.5 | 0.00 | 0.00 | 0.00 | 57 | 1011.2 |
| 20260505122717 | 46 | 342 | 1.7 | 3.5 | 0.00 | 0.00 | 0.00 | 58 | 1011.2 |
| 20260505122003 | 46 | 357 | 2.6 | 4.3 | 0.00 | 0.00 | 0.00 | 61 | 1011.2 |
| 20260505121719 | 46 | 8 | 2.6 | 4.3 | 0.00 | 0.00 | 0.00 | 63 | 1011.2 |
| 20260505121003 | 45 | 61 | 1.7 | 3.5 | 0.00 | 0.00 | 0.00 | 77 | 1011.2 |
| 20260505120503 | 45 | 74 | 0.9 | 2.6 | 0.00 | 0.00 | 0.00 | 80 | 1011.1 |
| 20260505120004 | 45 | 71 | 0.9 | 1.7 | 0.00 | 0.00 | 0.00 | 80 | 1011.1 |
| 20260505115503 | 45 | 71 | 0.0 | 1.7 | 0.00 | 0.00 | 0.00 | 79 | 1011.1 |
| 20260505115003 | 45 | 71 | 0.0 | 1.7 | 0.00 | 0.00 | 0.00 | 79 | 1011.1 |
| 20260505114503 | 46 | 66 | 0.9 | 1.7 | 0.00 | 0.00 | 0.00 | 76 | 1011.1 |
| 20260505114003 | 46 | 53 | 0.9 | 1.7 | 0.00 | 0.00 | 0.00 | 74 | 1011.1 |
| 20260505113718 | 46 | 24 | 0.9 | 2.6 | 0.00 | 0.00 | 0.00 | 71 | 1011.0 |
| 20260505113003 | 47 | 13 | 1.7 | 3.5 | 0.00 | 0.00 | 0.00 | 57 | 1010.9 |
| 20260505112716 | 47 | 19 | 1.7 | 3.5 | 0.00 | 0.00 | 0.00 | 57 | 1010.9 |
| 20260505112003 | 47 | 23 | 1.7 | 2.6 | 0.00 | 0.00 | 0.00 | 66 | 1010.9 |
| 20260505111503 | 48 | 13 | 2.6 | 3.5 | 0.00 | 0.00 | 0.00 | 59 | 1010.9 |
| 20260505111003 | 49 | 13 | 2.6 | 3.5 | 0.00 | 0.00 | 0.00 | 54 | 1010.9 |
| 20260505110503 | 49 | 10 | 2.6 | 4.3 | 0.00 | 0.00 | 0.00 | 53 | 1010.9 |
| 20260505102003 | 52 | 345 | 3.5 | 8.7 | 0.00 | 0.00 | 0.00 | 51 | 1010.6 |
| 20260505101503 | 52 | 352 | 4.3 | 9.6 | 0.00 | 0.00 | 0.00 | 50 | 1010.5 |
| 20260505101219 | 52 | 352 | 4.3 | 11.3 | 0.00 | 0.00 | 0.00 | 50 | 1010.5 |
| 20260505100503 | 52 | 350 | 5.2 | 11.3 | 0.00 | 0.00 | 0.00 | 50 | 1010.3 |
| 20260505100003 | 52 | 352 | 5.2 | 11.3 | 0.00 | 0.00 | 0.00 | 50 | 1010.3 |
| 20260505095503 | 52 | 351 | 5.2 | 11.3 | 0.00 | 0.00 | 0.00 | 50 | 1010.2 |
| 20260505095003 | 52 | 353 | 5.2 | 10.4 | 0.00 | 0.00 | 0.00 | 50 | 1010.1 |
| 20260505094503 | 52 | 355 | 4.3 | 9.6 | 0.00 | 0.00 | 0.00 | 50 | 1010.2 |
| 20260505094003 | 52 | 351 | 4.3 | 12.2 | 0.00 | 0.00 | 0.00 | 50 | 1010.2 |
| 20260505093503 | 53 | 355 | 4.3 | 12.2 | 0.00 | 0.00 | 0.00 | 49 | 1010.2 |
| 20260505093004 | 53 | 357 | 6.1 | 11.3 | 0.00 | 0.00 | 0.00 | 49 | 1010.1 |
| 20260505092716 | 53 | 357 | 6.1 | 11.3 | 0.00 | 0.00 | 0.00 | 48 | 1010.1 |
| 20260505092003 | 53 | 354 | 5.2 | 12.2 | 0.00 | 0.00 | 0.00 | 49 | 1010.0 |
| 20260505091503 | 53 | 357 | 6.1 | 12.2 | 0.00 | 0.00 | 0.00 | 49 | 1009.9 |
| 20260505091003 | 53 | 358 | 6.1 | 12.2 | 0.00 | 0.00 | 0.00 | 49 | 1010.0 |
| 20260505090503 | 53 | 357 | 6.1 | 12.2 | 0.00 | 0.00 | 0.00 | 49 | 1009.9 |
| 20260505090003 | 53 | 359 | 7.0 | 13.0 | 0.00 | 0.00 | 0.00 | 49 | 1010.0 |
| 20260505085717 | 53 | 1 | 7.8 | 14.8 | 0.00 | 0.00 | 0.00 | 48 | 1010.0 |
| 20260505085003 | 53 | 360 | 7.8 | 14.8 | 0.00 | 0.00 | 0.00 | 48 | 1009.8 |
| 20260505084719 | 53 | 1 | 8.7 | 17.4 | 0.00 | 0.00 | 0.00 | 48 | 1009.7 |
| 20260505084003 | 54 | 4 | 8.7 | 17.4 | 0.00 | 0.00 | 0.00 | 48 | 1009.8 |
| 20260505083503 | 54 | 2 | 7.8 | 14.8 | 0.00 | 0.00 | 0.00 | 48 | 1009.8 |
| 20260505083218 | 54 | 2 | 7.8 | 13.9 | 0.00 | 0.00 | 0.00 | 48 | 1009.9 |
| 20260505082503 | 54 | 357 | 7.0 | 13.9 | 0.00 | 0.00 | 0.00 | 47 | 1009.9 |
| 20260505082003 | 54 | 354 | 7.8 | 15.6 | 0.00 | 0.00 | 0.00 | 47 | 1009.9 |
| 20260505081503 | 55 | 360 | 8.7 | 17.4 | 0.00 | 0.00 | 0.00 | 47 | 1009.9 |
| 20260505081003 | 55 | 3 | 9.6 | 17.4 | 0.00 | 0.00 | 0.00 | 47 | 1009.8 |
| 20260505080503 | 55 | 1 | 9.6 | 16.5 | 0.00 | 0.00 | 0.00 | 46 | 1009.7 |
| 20260505080003 | 55 | 357 | 10.4 | 16.5 | 0.00 | 0.00 | 0.00 | 47 | 1009.6 |
| 20260505075503 | 55 | 352 | 9.6 | 16.5 | 0.00 | 0.00 | 0.00 | 47 | 1009.5 |
| 20260505075218 | 55 | 352 | 9.6 | 18.2 | 0.00 | 0.00 | 0.00 | 47 | 1009.6 |
| 20260505074719 | 55 | 355 | 8.7 | 18.2 | 0.00 | 0.00 | 0.00 | 47 | 1009.6 |
| 20260505074004 | 55 | 357 | 9.6 | 17.4 | 0.00 | 0.00 | 0.00 | 47 | 1009.6 |
| 20260505073717 | 55 | 357 | 9.6 | 17.4 | 0.00 | 0.00 | 0.00 | 47 | 1009.6 |
| 20260505073218 | 55 | 355 | 8.7 | 16.5 | 0.00 | 0.00 | 0.00 | 47 | 1009.6 |
| 20260505072719 | 55 | 358 | 8.7 | 16.5 | 0.00 | 0.00 | 0.00 | 47 | 1009.6 |
| 20260505072216 | 55 | 359 | 8.7 | 16.5 | 0.00 | 0.00 | 0.00 | 47 | 1009.6 |
| 20260505071503 | 55 | 355 | 7.8 | 17.4 | 0.00 | 0.00 | 0.00 | 47 | 1009.6 |
| 20260505071003 | 56 | 353 | 8.7 | 16.5 | 0.00 | 0.00 | 0.00 | 46 | 1009.5 |
| 20260505070503 | 56 | 354 | 8.7 | 16.5 | 0.00 | 0.00 | 0.00 | 46 | 1009.5 |
| 20260505070003 | 56 | 357 | 8.7 | 17.4 | 0.00 | 0.00 | 0.00 | 46 | 1009.4 |
| 20260505065717 | 56 | 356 | 8.7 | 17.4 | 0.00 | 0.00 | 0.00 | 46 | 1009.5 |
| 20260505065003 | 56 | 355 | 8.7 | 16.5 | 0.00 | 0.00 | 0.00 | 46 | 1009.5 |
| 20260505064503 | 56 | 356 | 9.6 | 16.5 | 0.00 | 0.00 | 0.00 | 46 | 1009.5 |
| 20260505064003 | 57 | 359 | 8.7 | 16.5 | 0.00 | 0.00 | 0.00 | 46 | 1009.5 |
| 20260505063503 | 57 | 358 | 7.8 | 16.5 | 0.00 | 0.00 | 0.00 | 46 | 1009.5 |
| 20260505063003 | 57 | 357 | 7.8 | 17.4 | 0.00 | 0.00 | 0.00 | 46 | 1009.5 |
| 20260505062503 | 57 | 355 | 8.7 | 17.4 | 0.00 | 0.00 | 0.00 | 46 | 1009.5 |
| 20260505062003 | 57 | 355 | 8.7 | 16.5 | 0.00 | 0.00 | 0.00 | 46 | 1009.6 |
| 20260505061503 | 57 | 357 | 7.8 | 14.8 | 0.00 | 0.00 | 0.00 | 46 | 1009.5 |
| 20260505061003 | 57 | 354 | 6.1 | 13.9 | 0.00 | 0.00 | 0.00 | 47 | 1009.6 |
| 20260505060503 | 57 | 353 | 6.1 | 11.3 | 0.00 | 0.00 | 0.00 | 47 | 1009.6 |
| 20260505060003 | 57 | 355 | 7.0 | 14.8 | 0.00 | 0.00 | 0.00 | 48 | 1009.6 |
| 20260505055716 | 57 | 354 | 7.0 | 14.8 | 0.00 | 0.00 | 0.00 | 48 | 1009.6 |
| 20260505055217 | 58 | 354 | 7.0 | 14.8 | 0.00 | 0.00 | 0.00 | 48 | 1009.6 |
| 20260505054503 | 58 | 356 | 7.0 | 12.2 | 0.00 | 0.00 | 0.00 | 48 | 1009.6 |
| 20260505054003 | 58 | 360 | 7.0 | 13.9 | 0.00 | 0.00 | 0.00 | 49 | 1009.6 |
| 20260505053503 | 58 | 360 | 7.0 | 13.9 | 0.00 | 0.00 | 0.00 | 49 | 1009.5 |
| 20260505053003 | 58 | 1 | 6.1 | 12.2 | 0.00 | 0.00 | 0.00 | 50 | 1009.5 |
| 20260505052718 | 58 | 360 | 6.1 | 12.2 | 0.00 | 0.00 | 0.00 | 51 | 1009.5 |
| 20260505052003 | 58 | 351 | 6.1 | 13.9 | 0.00 | 0.00 | 0.00 | 52 | 1009.6 |
| 20260505051503 | 58 | 351 | 6.1 | 13.9 | 0.00 | 0.00 | 0.00 | 55 | 1009.7 |
| 20260505051003 | 57 | 350 | 5.2 | 13.9 | 0.00 | 0.00 | 0.00 | 57 | 1009.7 |
| 20260505050503 | 57 | 345 | 3.5 | 9.6 | 0.00 | 0.00 | 0.00 | 60 | 1009.7 |
| 20260505041503 | 60 | 325 | 3.5 | 8.7 | 0.00 | 0.00 | 0.00 | 55 | 1009.3 |
| 20260505041003 | 60 | 321 | 3.5 | 7.0 | 0.00 | 0.00 | 0.00 | 55 | 1009.1 |
| 20260505040504 | 60 | 322 | 4.3 | 9.6 | 0.00 | 0.00 | 0.00 | 55 | 1009.0 |
| 20260505040004 | 60 | 323 | 4.3 | 9.6 | 0.00 | 0.00 | 0.00 | 54 | 1008.9 |
| 20260505035503 | 61 | 327 | 4.3 | 9.6 | 0.00 | 0.00 | 0.00 | 51 | 1008.8 |
| 20260505035003 | 61 | 326 | 3.5 | 8.7 | 0.00 | 0.00 | 0.00 | 48 | 1008.8 |
| 20260505034717 | 61 | 327 | 3.5 | 8.7 | 0.00 | 0.00 | 0.00 | 48 | 1008.8 |
| 20260505034003 | 61 | 337 | 3.5 | 7.8 | 0.00 | 0.00 | 0.00 | 48 | 1008.7 |
| 20260505033503 | 61 | 337 | 3.5 | 7.8 | 0.00 | 0.00 | 0.00 | 48 | 1008.5 |
| 20260505033003 | 62 | 337 | 4.3 | 12.2 | 0.00 | 0.00 | 0.00 | 48 | 1008.6 |
| 20260505032503 | 62 | 334 | 5.2 | 12.2 | 0.00 | 0.00 | 0.00 | 48 | 1008.5 |
| 20260505032003 | 62 | 331 | 6.1 | 13.0 | 0.00 | 0.00 | 0.00 | 47 | 1008.4 |
| 20260505031503 | 62 | 329 | 6.1 | 13.0 | 0.00 | 0.00 | 0.00 | 47 | 1008.3 |
| 20260505031003 | 63 | 327 | 6.1 | 13.0 | 0.00 | 0.00 | 0.00 | 47 | 1008.1 |
| 20260505030503 | 62 | 329 | 7.0 | 15.6 | 0.00 | 0.00 | 0.00 | 48 | 1008.1 |
| 20260505030003 | 62 | 331 | 7.0 | 15.6 | 0.00 | 0.00 | 0.00 | 48 | 1008.0 |
| 20260505025503 | 62 | 329 | 7.8 | 15.6 | 0.00 | 0.00 | 0.00 | 49 | 1007.8 |
| 20260505025003 | 62 | 333 | 7.0 | 15.6 | 0.00 | 0.00 | 0.00 | 50 | 1007.7 |
| 20260505024503 | 61 | 331 | 6.1 | 13.9 | 0.00 | 0.00 | 0.00 | 51 | 1007.7 |
| 20260505024003 | 60 | 326 | 6.1 | 13.9 | 0.00 | 0.00 | 0.00 | 54 | 1007.6 |
| 20260505023503 | 59 | 339 | 7.0 | 25.2 | 0.00 | 0.00 | 0.00 | 56 | 1007.8 |
| 20260505023216 | 60 | 350 | 8.7 | 25.2 | 0.00 | 0.00 | 0.00 | 56 | 1008.0 |
| 20260505022503 | 65 | 348 | 7.8 | 22.6 | 0.00 | 0.00 | 0.00 | 49 | 1008.2 |
| 20260505022003 | 66 | 328 | 7.0 | 17.4 | 0.00 | 0.00 | 0.00 | 43 | 1008.1 |
| 20260505021503 | 66 | 320 | 7.0 | 14.8 | 0.00 | 0.00 | 0.00 | 44 | 1007.6 |
| 20260505021003 | 66 | 320 | 6.1 | 12.2 | 0.00 | 0.00 | 0.00 | 45 | 1007.7 |
| 20260505020503 | 65 | 316 | 7.0 | 15.6 | 0.00 | 0.00 | 0.00 | 47 | 1007.6 |
| 20260505020003 | 65 | 308 | 7.0 | 15.6 | 0.00 | 0.00 | 0.00 | 47 | 1007.5 |
| 20260505015503 | 65 | 308 | 6.1 | 13.9 | 0.00 | 0.00 | 0.00 | 49 | 1007.5 |
| 20260505015003 | 64 | 313 | 6.1 | 13.9 | 0.00 | 0.00 | 0.00 | 51 | 1007.6 |
| 20260505014503 | 64 | 318 | 7.0 | 13.9 | 0.00 | 0.00 | 0.00 | 53 | 1007.6 |
| 20260505014003 | 64 | 317 | 7.0 | 14.8 | 0.00 | 0.00 | 0.00 | 53 | 1007.6 |
| 20260505013719 | 65 | 315 | 7.0 | 14.8 | 0.00 | 0.00 | 0.00 | 54 | 1007.7 |
| 20260505013003 | 66 | 318 | 7.8 | 18.2 | 0.00 | 0.00 | 0.00 | 48 | 1007.9 |
| 20260505012503 | 66 | 319 | 7.8 | 18.2 | 0.00 | 0.00 | 0.00 | 46 | 1007.9 |
| 20260505012003 | 65 | 327 | 8.7 | 15.6 | 0.00 | 0.00 | 0.00 | 46 | 1007.9 |
| 20260505011503 | 66 | 324 | 7.8 | 15.6 | 0.00 | 0.00 | 0.00 | 46 | 1007.8 |
| 20260505011003 | 68 | 316 | 7.8 | 14.8 | 0.00 | 0.00 | 0.00 | 40 | 1007.7 |
| 20260505010717 | 69 | 315 | 7.8 | 15.6 | 0.00 | 0.00 | 0.00 | 39 | 1007.8 |
| 20260505010003 | 71 | 320 | 6.1 | 15.6 | 0.00 | 0.00 | 0.00 | 36 | 1007.8 |
| 20260505005503 | 71 | 314 | 5.2 | 12.2 | 0.00 | 0.00 | 0.00 | 36 | 1007.7 |
| 20260505005219 | 71 | 315 | 5.2 | 12.2 | 0.00 | 0.00 | 0.00 | 35 | 1007.7 |
| 20260505004503 | 72 | 318 | 5.2 | 10.4 | 0.00 | 0.00 | 0.00 | 32 | 1007.8 |
| 20260505004003 | 73 | 318 | 5.2 | 12.2 | 0.00 | 0.00 | 0.00 | 33 | 1007.8 |
| 20260505003503 | 74 | 304 | 5.2 | 13.0 | 0.00 | 0.00 | 0.00 | 31 | 1007.6 |
| 20260505003003 | 73 | 293 | 5.2 | 13.0 | 0.00 | 0.00 | 0.00 | 34 | 1007.5 |
| 20260505002503 | 75 | 299 | 5.2 | 13.9 | 0.00 | 0.00 | 0.00 | 32 | 1007.5 |
| 20260505002217 | 75 | 305 | 6.1 | 13.9 | 0.00 | 0.00 | 0.00 | 32 | 1007.4 |
| 20260505001503 | 75 | 308 | 6.1 | 15.6 | 0.00 | 0.00 | 0.00 | 31 | 1007.4 |
| 20260505001003 | 75 | 311 | 5.2 | 15.6 | 0.00 | 0.00 | 0.00 | 29 | 1007.5 |
| 20260505000716 | 76 | 308 | 5.2 | 15.6 | 0.00 | 0.00 | 0.00 | 30 | 1007.5 |
| 20260505000003 | 74 | 295 | 2.6 | 8.7 | 0.00 | 0.00 | 0.00 | 30 | 1007.6 |
| 20260504235503 | 72 | 289 | 2.6 | 7.0 | 0.00 | 0.00 | 0.00 | 30 | 1007.7 |
| 20260504235003 | 71 | 295 | 1.7 | 5.2 | 0.00 | 0.00 | 0.00 | 29 | 1007.7 |
| 20260504234503 | 72 | 4 | 2.6 | 5.2 | 0.00 | 0.00 | 0.00 | 26 | 1007.8 |
| 20260504234003 | 73 | 52 | 2.6 | 7.8 | 0.00 | 0.00 | 0.00 | 26 | 1007.9 |
| 20260504233503 | 75 | 57 | 3.5 | 7.8 | 0.00 | 0.00 | 0.00 | 26 | 1007.9 |
| 20260504233003 | 74 | 46 | 5.2 | 15.6 | 0.00 | 0.00 | 0.00 | 27 | 1007.9 |
| 20260504232716 | 73 | 40 | 6.1 | 15.6 | 0.00 | 0.00 | 0.00 | 26 | 1007.9 |
| 20260504232217 | 73 | 35 | 7.0 | 15.6 | 0.00 | 0.00 | 0.00 | 27 | 1007.8 |
| 20260504231503 | 74 | 28 | 7.8 | 13.0 | 0.00 | 0.00 | 0.00 | 26 | 1007.9 |
| 20260504231003 | 74 | 30 | 7.0 | 13.0 | 0.00 | 0.00 | 0.00 | 25 | 1007.8 |
| 20260504230716 | 75 | 36 | 6.1 | 13.0 | 0.00 | 0.00 | 0.00 | 26 | 1007.9 |
| 20260504230003 | 76 | 27 | 5.2 | 13.0 | 0.00 | 0.00 | 0.00 | 26 | 1008.0 |
| 20260504225503 | 75 | 25 | 5.2 | 11.3 | 0.00 | 0.00 | 0.00 | 25 | 1008.1 |
| 20260504225003 | 76 | 29 | 5.2 | 9.6 | 0.00 | 0.00 | 0.00 | 24 | 1008.1 |
| 20260504224503 | 76 | 10 | 5.2 | 13.9 | 0.00 | 0.00 | 0.00 | 24 | 1008.2 |